Time;durP1;ratioP1;P1;durP2;ratioP2;P2;SDS_P1;SDS_P2;PMS_P1;PMS_P2;Temp;Humidity;BMP_temperature;BMP_pressure;BME280_temperature;BME280_humidity;BME280_pressure;Samples;Min_cycle;Max_cycle;Signal;HPM_P1;HPM_P2
2023/03/27 00:04:14;;;;;;;1.43;0.70;;;10.40;95.10;;;8.97;79.53;98485.22;10249946;28;97554;-82
2023/03/27 00:09:20;;;;;;;1.37;0.73;;;10.50;95.80;;;8.94;79.98;98488.28;10222738;28;97276;-82
2023/03/27 00:14:23;;;;;;;2.23;0.70;;;10.40;96.40;;;8.91;80.54;98467.47;10246321;28;96663;-83
2023/03/27 00:19:26;;;;;;;1.33;0.70;;;10.40;97.10;;;8.83;81.15;98458.72;10245994;28;96407;-83
2023/03/27 00:24:29;;;;;;;1.83;0.70;;;10.30;97.90;;;8.74;81.65;98448.47;10211024;28;98376;-83
2023/03/27 00:29:33;;;;;;;1.80;0.80;;;10.20;98.80;;;8.63;82.78;98441.91;10214177;28;98950;-84
2023/03/27 00:34:36;;;;;;;1.77;0.90;;;10.20;99.10;;;8.52;84.13;98430.09;10244988;28;97083;-84
2023/03/27 00:39:40;;;;;;;2.40;0.63;;;10.10;99.60;;;8.43;84.76;98428.59;10208005;28;97728;-84
2023/03/27 00:44:43;;;;;;;1.67;0.80;;;10.00;99.90;;;8.40;85.49;98420.25;10267106;28;96703;-84
2023/03/27 00:49:49;;;;;;;2.63;1.00;;;10.00;99.90;;;8.41;86.12;98413.94;10264748;28;97485;-84
2023/03/27 00:54:52;;;;;;;1.83;1.00;;;10.00;99.90;;;8.39;86.63;98402.72;10250225;28;96533;-84
2023/03/27 00:59:56;;;;;;;1.73;0.80;;;10.00;99.90;;;8.37;86.91;98405.56;10235687;28;96750;-84
2023/03/27 01:05:00;;;;;;;3.47;1.17;;;10.00;99.90;;;8.33;87.41;98396.34;10208215;28;97496;-84
2023/03/27 01:10:07;;;;;;;4.93;2.03;;;9.90;99.90;;;8.32;87.54;98394.72;10221186;28;96743;-84
2023/03/27 01:15:56;;;;;;;4.20;2.10;;;9.90;99.90;;;8.31;88.20;98382.50;10195639;28;96518;-84
2023/03/27 01:21:36;;;;;;;2.37;1.13;;;9.90;99.90;;;8.26;88.98;98377.00;10254675;28;97312;-84
2023/03/27 01:27:01;;;;;;;2.97;1.30;;;9.80;99.90;;;8.20;89.85;98370.66;10241899;28;96534;-85
2023/03/27 01:32:58;;;;;;;2.23;1.40;;;9.80;99.90;;;8.12;90.91;98362.91;10250748;28;98847;-84
2023/03/27 01:38:27;;;;;;;2.50;1.50;;;9.70;99.90;;;8.08;91.66;98359.00;10211606;28;98344;-84
2023/03/27 01:43:41;;;;;;;2.90;1.30;;;9.60;99.90;;;8.03;92.05;98349.00;10255517;28;96481;-83
2023/03/27 01:49:03;;;;;;;2.80;0.97;;;9.70;99.90;;;8.00;92.93;98345.94;10223935;28;97313;-83
2023/03/27 01:54:14;;;;;;;;;;;9.60;99.90;;;7.93;93.40;98334.53;10249342;28;97261;-82
2023/03/27 01:59:20;;;;;;;1.13;0.80;;;9.50;99.90;;;7.84;93.79;98335.69;10248936;28;97473;-82
2023/03/27 02:04:32;;;;;;;1.57;1.00;;;9.40;99.90;;;7.73;94.83;98337.88;10243115;28;96816;-83
2023/03/27 02:09:43;;;;;;;2.43;1.30;;;9.30;99.90;;;7.67;94.92;98330.72;10236326;28;97036;-83
2023/03/27 02:14:56;;;;;;;3.47;1.15;;;9.30;99.90;;;7.64;95.56;98335.59;10208903;28;96864;-84
2023/03/27 02:20:19;;;;;;;2.13;1.00;;;9.20;99.90;;;7.60;96.09;98329.84;10252485;28;96635;-84
2023/03/27 02:25:35;;;;;;;4.50;1.10;;;9.20;99.90;;;7.61;96.48;98330.69;10236117;28;96977;-83
2023/03/27 02:30:51;;;;;;;3.03;1.20;;;9.20;99.90;;;7.63;96.21;98334.78;10226266;28;97415;-83
2023/03/27 02:36:36;;;;;;;2.27;1.10;;;9.20;99.90;;;7.64;96.57;98328.47;10213842;28;98598;-83
2023/03/27 02:41:46;;;;;;;4.77;1.30;;;9.30;99.90;;;7.60;97.29;98303.44;10233929;28;97233;-83
2023/03/27 02:47:08;;;;;;;2.20;1.40;;;9.20;99.90;;;7.60;97.61;98292.84;10253600;28;97609;-83
2023/03/27 02:52:19;;;;;;;4.20;3.37;;;9.20;99.90;;;7.61;97.74;98291.03;10246985;28;96518;-83
2023/03/27 02:57:26;;;;;;;6.35;2.28;;;9.20;99.90;;;7.57;98.22;98280.03;10224956;28;96493;-84
2023/03/27 03:02:32;;;;;;;5.97;3.10;;;9.20;99.90;;;7.55;98.75;98271.47;10249173;28;98010;-84
2023/03/27 03:07:37;;;;;;;4.60;2.80;;;9.10;99.90;;;7.52;99.40;98269.22;10262969;28;96488;-84
2023/03/27 03:12:40;;;;;;;3.07;2.17;;;9.10;99.90;;;7.50;100.00;98255.41;10248429;28;96658;-84
2023/03/27 03:17:44;;;;;;;3.70;2.00;;;9.00;99.90;;;7.48;100.00;98252.94;10249199;28;96623;-84
2023/03/27 03:22:48;;;;;;;3.93;2.10;;;9.00;99.90;;;7.46;100.00;98254.97;10229941;28;98830;-83
2023/03/27 03:27:57;;;;;;;3.70;2.00;;;9.00;99.90;;;7.46;100.00;98254.16;10226373;28;99063;-83
2023/03/27 03:33:00;;;;;;;7.27;2.90;;;9.00;99.90;;;7.47;100.00;98253.16;10244954;28;98745;-82
2023/03/27 03:38:03;;;;;;;5.67;2.90;;;9.00;99.90;;;7.52;100.00;98248.09;10245377;28;96727;-83
2023/03/27 03:43:09;;;;;;;6.10;2.40;;;9.00;99.90;;;7.55;100.00;98249.50;10239120;28;97807;-83
2023/03/27 03:48:12;;;;;;;5.57;3.03;;;9.10;99.90;;;7.58;100.00;98247.31;10269358;28;96731;-85
2023/03/27 03:53:18;;;;;;;4.10;2.63;;;9.10;99.90;;;7.59;100.00;98235.72;10255524;28;96654;-85
2023/03/27 03:58:21;;;;;;;6.87;2.97;;;9.20;99.90;;;7.60;100.00;98233.88;10259086;28;96594;-85
2023/03/27 04:03:37;;;;;;;5.70;3.00;;;9.20;99.90;;;7.59;100.00;98233.06;10222146;28;96541;-85
2023/03/27 04:08:41;;;;;;;6.73;3.53;;;9.10;99.90;;;7.61;100.00;98227.59;10233210;28;99851;-85
2023/03/27 04:13:44;;;;;;;7.93;4.00;;;9.20;99.90;;;7.61;100.00;98240.81;10274308;28;96969;-86
2023/03/27 04:18:49;;;;;;;4.60;2.83;;;9.20;99.90;;;7.56;100.00;98232.63;10254752;28;99213;-78
2023/03/27 04:23:52;;;;;;;6.57;3.50;;;9.10;99.90;;;7.56;100.00;98238.75;10249880;28;97320;-80
2023/03/27 04:28:55;;;;;;;4.10;2.93;;;9.10;99.90;;;7.56;100.00;98233.47;10249896;28;96496;-80
2023/03/27 04:33:58;;;;;;;7.23;4.27;;;9.20;99.90;;;7.54;100.00;98227.56;10255820;28;96549;-80
2023/03/27 04:39:02;;;;;;;5.93;3.70;;;9.10;99.90;;;7.57;100.00;98229.81;10247326;28;96525;-80
2023/03/27 04:44:07;;;;;;;4.60;3.07;;;9.20;99.90;;;7.57;100.00;98240.41;10218376;28;96526;-79
2023/03/27 04:49:10;;;;;;;4.87;3.47;;;9.20;99.90;;;7.54;100.00;98229.38;10233952;28;96488;-80
2023/03/27 04:54:14;;;;;;;5.47;3.33;;;9.10;99.90;;;7.54;100.00;98230.19;10228347;28;96478;-80
2023/03/27 04:59:17;;;;;;;7.47;4.37;;;9.10;99.90;;;7.53;100.00;98220.66;10247416;28;96650;-80
2023/03/27 05:04:20;;;;;;;5.70;4.13;;;9.10;99.90;;;7.55;100.00;98228.38;10230736;28;96548;-79
2023/03/27 05:09:24;;;;;;;7.83;4.40;;;9.10;99.90;;;7.56;100.00;98222.91;10248096;28;96841;-80
2023/03/27 05:14:28;;;;;;;6.80;4.53;;;9.10;99.90;;;7.56;100.00;98216.78;10270824;28;96437;-80
2023/03/27 05:19:31;;;;;;;7.00;4.03;;;9.10;99.90;;;7.53;100.00;98212.72;10264461;28;96506;-80
2023/03/27 05:24:34;;;;;;;7.47;5.37;;;9.10;99.90;;;7.49;100.00;98208.81;10232766;28;96598;-81
2023/03/27 05:29:37;;;;;;;5.47;4.07;;;9.00;99.90;;;7.49;100.00;98208.81;10235744;28;96536;-81
2023/03/27 05:34:49;;;;;;;5.30;3.00;;;9.00;99.90;;;7.47;100.00;98214.31;10270612;28;97824;-81
2023/03/27 05:39:52;;;;;;;5.23;2.90;;;9.00;99.90;;;7.45;100.00;98215.53;10266860;28;96660;-81
2023/03/27 05:44:56;;;;;;;6.47;3.63;;;9.00;99.90;;;7.40;100.00;98204.72;10259882;28;96726;-82
2023/03/27 05:49:59;;;;;;;6.17;4.87;;;8.90;99.90;;;7.35;100.00;98197.38;10244932;28;96668;-81
2023/03/27 05:55:02;;;;;;;4.23;3.27;;;8.90;99.90;;;7.31;100.00;98184.75;10247686;28;96375;-81
2023/03/27 06:00:12;;;;;;;3.77;2.53;;;8.80;99.90;;;7.27;100.00;98180.91;10225577;28;97514;-81
2023/03/27 06:05:15;;;;;;;5.07;2.70;;;8.80;99.90;;;7.29;100.00;98184.16;10219224;28;96674;-81
2023/03/27 06:10:19;;;;;;;5.40;3.03;;;8.80;99.90;;;7.31;100.00;98177.63;10220044;28;98499;-81
2023/03/27 06:15:23;;;;;;;2.40;1.30;;;8.80;99.90;;;7.31;100.00;98182.09;10248534;28;97308;-80
2023/03/27 06:20:26;;;;;;;4.37;1.47;;;8.80;99.90;;;7.26;100.00;98172.16;10252238;28;96609;-81
2023/03/27 06:25:33;;;;;;;1.40;0.93;;;8.80;99.90;;;7.22;100.00;98179.66;10251522;28;96697;-81
2023/03/27 06:30:37;;;;;;;3.10;0.70;;;8.80;99.90;;;7.17;100.00;98175.94;10276803;28;96481;-81
2023/03/27 06:35:42;;;;;;;2.30;0.60;;;8.70;99.90;;;7.13;100.00;98172.88;10252429;28;98341;-81
2023/03/27 06:40:55;;;;;;;1.23;0.67;;;8.70;99.90;;;7.10;100.00;98170.63;10235789;28;96617;-81
2023/03/27 06:45:58;;;;;;;1.33;0.70;;;8.70;99.90;;;7.07;100.00;98165.72;10251087;28;99148;-81
2023/03/27 06:51:02;;;;;;;1.60;1.03;;;8.60;99.90;;;7.08;100.00;98169.22;10213841;28;96612;-81
2023/03/27 06:56:06;;;;;;;0.90;0.70;;;8.60;99.90;;;7.07;100.00;98167.56;10245808;28;96418;-81
2023/03/27 07:01:10;;;;;;;2.10;0.80;;;8.60;99.90;;;7.08;99.99;98151.53;10247602;28;96634;-81
2023/03/27 07:06:13;;;;;;;1.73;0.97;;;8.60;99.90;;;7.09;99.94;98157.63;10241544;28;96500;-82
2023/03/27 07:11:16;;;;;;;2.00;0.90;;;8.70;99.90;;;7.13;99.89;98149.09;10271187;28;96751;-81
2023/03/27 07:16:20;;;;;;;2.97;1.10;;;8.70;99.90;;;7.14;99.92;98155.22;10221041;28;96587;-81
2023/03/27 07:21:23;;;;;;;2.67;1.33;;;8.70;99.90;;;7.12;99.50;98158.03;10226331;28;97364;-81
2023/03/27 07:26:27;;;;;;;2.53;1.33;;;8.60;99.90;;;7.11;99.24;98177.53;10244645;28;96591;-81
2023/03/27 07:31:30;;;;;;;2.40;1.40;;;8.60;99.90;;;7.10;99.63;98183.84;10248072;28;96528;-82
2023/03/27 07:36:55;;;;;;;2.53;1.40;;;8.70;99.90;;;7.10;99.82;98188.31;10221647;28;96515;-82
2023/03/27 07:41:59;;;;;;;3.50;1.53;;;8.70;99.90;;;7.09;99.59;98179.56;10219804;28;96709;-82
2023/03/27 07:47:02;;;;;;;3.90;1.90;;;8.60;99.90;;;7.07;99.22;98181.56;10207302;28;96583;-82
2023/03/27 07:52:05;;;;;;;4.30;2.33;;;8.60;99.90;;;7.06;99.85;98185.22;10204240;28;97337;-83
2023/03/27 07:57:09;;;;;;;4.93;2.80;;;8.60;99.90;;;7.10;100.00;98191.78;10212971;28;96552;-82
2023/03/27 08:02:12;;;;;;;5.00;2.37;;;8.60;99.90;;;7.13;100.00;98196.66;10228608;28;96548;-83
2023/03/27 08:07:15;;;;;;;3.03;1.70;;;8.70;99.90;;;7.14;100.00;98189.56;10217122;28;96723;-82
2023/03/27 08:12:18;;;;;;;5.27;2.17;;;8.70;99.90;;;7.14;100.00;98182.47;10230068;28;96972;-82
2023/03/27 08:17:23;;;;;;;2.80;1.70;;;8.70;99.90;;;7.17;100.00;98179.41;10195613;28;96476;-82
2023/03/27 08:22:27;;;;;;;3.87;2.60;;;8.70;99.90;;;7.16;100.00;98167.22;10226713;28;96619;-82
2023/03/27 08:27:31;;;;;;;5.10;3.50;;;8.70;99.90;;;7.20;100.00;98171.09;10195833;28;96684;-82
2023/03/27 08:32:34;;;;;;;6.07;3.87;;;8.70;99.90;;;7.29;100.00;98179.69;10203128;28;96495;-82
2023/03/27 08:37:37;;;;;;;3.93;2.53;;;8.80;99.90;;;7.37;100.00;98184.78;10266896;28;96632;-82
2023/03/27 08:42:42;;;;;;;4.17;2.40;;;8.90;99.90;;;7.40;100.00;98180.94;10285485;28;96421;-82
2023/03/27 08:48:11;;;;;;;3.03;1.80;;;8.90;99.90;;;7.39;100.00;98181.97;10240567;28;96612;-81
2023/03/27 08:53:59;;;;;;;3.73;2.20;;;8.90;99.90;;;7.34;100.00;98187.84;10203536;28;97150;-81
2023/03/27 08:59:04;;;;;;;4.40;2.37;;;8.90;99.90;;;7.33;100.00;98196.78;10156786;28;96593;-81
2023/03/27 09:04:31;;;;;;;4.10;2.40;;;8.90;99.90;;;7.34;100.00;98208.97;10194317;28;96906;-81
2023/03/27 09:09:38;;;;;;;4.80;2.80;;;8.80;99.90;;;7.32;100.00;98211.00;10210341;28;97719;-82
2023/03/27 09:15:14;;;;;;;3.90;2.60;;;8.80;99.90;;;7.30;100.00;98222.75;10199968;28;97170;-82
2023/03/27 09:20:33;;;;;;;4.13;2.60;;;8.90;99.90;;;7.26;100.00;98232.91;10210531;28;97564;-82
2023/03/27 09:25:50;;;;;;;5.13;3.17;;;8.80;99.90;;;7.24;100.00;98234.91;10258816;28;96473;-82
2023/03/27 09:30:53;;;;;;;3.77;2.63;;;8.70;99.90;;;7.16;100.00;98233.25;10228972;28;96664;-82
2023/03/27 09:35:57;;;;;;;4.50;3.10;;;8.70;99.90;;;7.09;100.00;98236.88;10207763;28;96431;-82
2023/03/27 09:41:20;;;;;;;4.43;2.80;;;8.70;99.90;;;7.03;100.00;98254.31;10215636;28;96851;-82
2023/03/27 09:46:26;;;;;;;6.40;3.00;;;8.60;99.90;;;7.01;100.00;98266.06;10247824;28;99038;-82
2023/03/27 09:51:46;;;;;;;4.63;2.50;;;8.60;99.90;;;6.96;100.00;98267.47;10199586;28;97427;-81
2023/03/27 09:56:52;;;;;;;4.03;2.30;;;8.60;99.90;;;6.92;100.00;98271.47;10219091;28;96566;-81
2023/03/27 10:01:58;;;;;;;4.03;2.20;;;8.50;99.90;;;6.92;100.00;98275.94;10217508;28;96543;-82
2023/03/27 10:07:07;;;;;;;2.70;2.10;;;8.50;99.90;;;6.88;100.00;98282.59;10199003;28;96744;-81
2023/03/27 10:12:18;;;;;;;4.77;2.50;;;8.40;99.90;;;6.77;100.00;98285.75;10209907;28;96865;-82
2023/03/27 10:17:34;;;;;;;3.40;1.85;;;8.30;99.90;;;6.69;100.00;98289.34;10245921;28;96716;-82
2023/03/27 10:22:50;;;;;;;3.40;2.23;;;8.30;99.90;;;6.69;100.00;98289.34;10205197;28;96869;-82
2023/03/27 10:28:09;;;;;;;3.43;2.50;;;8.20;99.90;;;6.73;100.00;98300.38;10223611;28;98934;-82
2023/03/27 10:33:12;;;;;;;4.00;1.83;;;8.20;99.90;;;6.71;100.00;98296.06;10228090;28;96955;-82
2023/03/27 10:38:17;;;;;;;6.73;5.23;;;8.30;99.90;;;6.71;100.00;98290.78;10224333;28;96695;-82
2023/03/27 10:43:39;;;;;;;4.93;3.80;;;8.30;99.90;;;6.74;100.00;98308.09;10215844;28;96802;-82
2023/03/27 10:48:51;;;;;;;3.47;2.00;;;8.30;99.90;;;6.75;100.00;98304.44;10241173;28;96524;-82
2023/03/27 10:54:10;;;;;;;3.40;1.50;;;8.30;99.90;;;6.71;100.00;98301.34;10224638;28;97366;-83
2023/03/27 10:59:20;;;;;;;7.80;5.10;;;8.30;99.90;;;6.68;100.00;98299.09;10225823;28;96999;-83
2023/03/27 11:05:01;;;;;;;11.77;7.50;;;8.20;99.90;;;6.67;100.00;98302.75;10256337;28;96997;-83
2023/03/27 11:10:30;;;;;;;6.43;3.87;;;8.20;99.90;;;6.79;100.00;98310.16;10239279;28;97406;-80
2023/03/27 11:15:42;;;;;;;5.33;3.37;;;8.30;99.90;;;6.88;100.00;98309.00;10283115;28;96605;-83
2023/03/27 11:20:59;;;;;;;8.30;5.70;;;8.40;99.90;;;6.97;100.00;98302.59;10196707;28;96407;-83
2023/03/27 11:26:05;;;;;;;17.17;5.83;;;8.50;99.90;;;7.06;100.00;98308.56;10208072;28;96635;-83
2023/03/27 11:31:50;;;;;;;85.37;21.80;;;8.60;99.90;;;7.18;100.00;98309.66;10246425;28;96553;-81
2023/03/27 11:37:30;;;;;;;11.20;5.07;;;8.70;99.90;;;7.19;100.00;98317.38;10215536;28;96491;-81
2023/03/27 11:42:41;;;;;;;24.67;16.63;;;8.80;99.90;;;7.29;100.00;98314.41;10199443;28;96634;-81
2023/03/27 11:48:20;;;;;;;23.97;18.23;;;8.80;99.90;;;7.44;100.00;98316.97;10211992;28;96847;-83
2023/03/27 11:53:51;;;;;;;23.90;18.13;;;9.00;99.90;;;7.50;100.00;98310.91;10231601;28;96473;-80
2023/03/27 11:59:09;;;;;;;24.37;17.40;;;9.10;99.90;;;7.59;100.00;98315.00;10236068;28;97467;-81
2023/03/27 12:04:18;;;;;;;25.03;18.10;;;9.20;99.90;;;7.62;100.00;98317.28;10213225;28;96434;-81
2023/03/27 12:09:42;;;;;;;21.37;14.37;;;9.20;99.90;;;7.71;99.25;98320.56;10212080;28;96507;-81
2023/03/27 12:14:51;;;;;;;20.73;14.13;;;9.30;99.90;;;7.77;97.73;98328.53;10195751;28;96426;-81
2023/03/27 12:19:56;;;;;;;18.47;12.20;;;9.40;99.90;;;7.88;94.58;98327.19;10219010;28;97448;-81
2023/03/27 12:25:36;;;;;;;15.70;11.33;;;9.50;99.90;;;7.94;93.79;98331.69;10243158;28;96562;-81
2023/03/27 12:31:18;;;;;;;17.13;11.47;;;9.50;99.90;;;8.03;92.42;98342.91;10215829;28;97036;-81
2023/03/27 12:36:23;;;;;;;13.53;10.40;;;9.60;99.90;;;8.10;91.84;98349.06;10193930;28;96441;-82
2023/03/27 12:41:36;;;;;;;12.20;8.13;;;9.70;99.90;;;8.16;91.15;98350.91;10239786;28;96567;-82
2023/03/27 12:46:41;;;;;;;10.23;7.67;;;9.70;99.90;;;8.16;89.23;98365.97;10249999;28;96517;-82
2023/03/27 12:52:03;;;;;;;4.63;3.47;;;9.80;99.90;;;7.92;81.81;98359.34;10211336;28;97700;-82
2023/03/27 12:57:14;;;;;;;;;;;9.60;99.90;;;7.64;81.75;98381.34;10181172;28;96609;-82
2023/03/27 13:02:49;;;;;;;4.85;2.88;;;9.30;99.90;;;7.41;80.12;98393.97;10242214;28;96515;-83
2023/03/27 13:08:09;;;;;;;3.10;2.27;;;9.00;99.90;;;7.26;80.79;98396.72;10236912;28;96523;-83
2023/03/27 13:13:33;;;;;;;3.30;2.10;;;8.80;99.90;;;7.17;78.13;98413.69;10251819;28;97393;-83
2023/03/27 13:19:33;;;;;;;4.07;1.80;;;8.70;99.90;;;7.04;77.84;98440.81;10246440;28;96453;-81
2023/03/27 13:25:06;;;;;;;1.80;1.20;;;8.60;99.90;;;6.82;76.18;98457.63;10294183;28;96577;-82
2023/03/27 13:30:40;;;;;;;2.30;1.07;;;8.40;99.90;;;6.57;75.61;98475.59;10280916;28;97238;-83
2023/03/27 13:36:01;;;;;;;3.50;1.17;;;8.20;99.90;;;6.31;76.64;98471.63;10227539;28;96613;-83
2023/03/27 13:41:35;;;;;;;;;;;7.90;99.90;;;6.10;77.33;98519.81;10240901;28;96495;-85
2023/03/27 13:47:06;;;;;;;3.17;1.63;;;7.70;99.90;;;5.87;79.19;98533.00;10246748;28;96464;-83
2023/03/27 13:52:30;;;;;;;3.30;1.10;;;7.50;99.90;;;5.59;77.72;98551.22;10213825;28;96478;-81
2023/03/27 13:58:11;;;;;;;3.50;2.03;;;7.20;99.90;;;5.36;79.30;98589.88;10298817;28;96278;-84
2023/03/27 14:03:35;;;;;;;7.30;2.30;;;6.90;99.90;;;5.20;80.29;98588.16;10247013;28;97214;-81
2023/03/27 14:08:54;;;;;;;5.70;1.97;;;6.70;99.90;;;4.98;80.75;98610.81;10248328;28;96579;-83
2023/03/27 14:14:57;;;;;;;5.83;3.43;;;6.50;99.90;;;4.82;81.56;98629.31;10211437;28;96639;-83
2023/03/27 14:20:12;;;;;;;;;;;6.40;99.90;;;4.76;80.91;98672.09;10271404;28;97534;-82
2023/03/27 14:25:20;;;;;;;4.93;2.93;;;6.30;99.90;;;4.69;80.21;98663.22;10252026;28;96533;-82
2023/03/27 14:30:31;;;;;;;4.53;3.13;;;6.20;99.90;;;4.66;79.65;98680.16;10239957;28;96695;-82
2023/03/27 14:35:42;;;;;;;5.35;3.10;;;6.20;99.90;;;4.61;78.43;98715.84;10266984;28;96542;-85
2023/03/27 14:40:46;;;;;;;5.27;2.77;;;6.20;99.90;;;4.58;77.44;98735.41;10247341;28;98089;-83
2023/03/27 14:45:53;;;;;;;6.10;3.40;;;6.20;99.90;;;4.54;76.21;98734.91;10239392;28;97835;-83
2023/03/27 14:51:01;;;;;;;3.63;2.37;;;6.20;99.90;;;4.50;73.23;98749.41;10247766;28;96598;-84
2023/03/27 14:56:35;;;;;;;3.30;2.40;;;6.10;99.90;;;4.45;73.14;98762.22;10268434;28;97264;-84
2023/03/27 15:01:40;;;;;;;5.77;2.70;;;6.10;99.90;;;4.41;72.95;98786.38;10262928;28;97283;-84
2023/03/27 15:06:44;;;;;;;5.00;2.43;;;6.10;99.90;;;4.35;72.38;98806.25;10262075;28;97631;-83
2023/03/27 15:11:54;;;;;;;3.30;2.40;;;6.00;99.60;;;4.24;72.42;98811.81;10247943;28;96606;-82
2023/03/27 15:17:16;;;;;;;3.47;2.00;;;5.90;99.50;;;4.06;71.06;98813.75;10252120;28;96567;-83
2023/03/27 15:22:30;;;;;;;3.80;2.17;;;5.80;98.90;;;3.95;71.60;98834.06;10249424;28;97374;-83
2023/03/27 15:27:39;;;;;;;2.27;1.37;;;5.60;98.80;;;3.81;70.64;98868.84;10236803;28;96436;-83
2023/03/27 15:32:49;;;;;;;3.17;1.83;;;5.40;98.40;;;3.73;71.00;98876.69;10263859;28;98283;-84
2023/03/27 15:37:53;;;;;;;5.30;2.40;;;5.40;98.80;;;3.66;69.29;98857.31;10238144;28;96616;-85
2023/03/27 15:43:05;;;;;;;6.47;3.57;;;5.30;97.50;;;3.61;69.64;98893.72;10239393;28;97462;-84
2023/03/27 15:48:22;;;;;;;4.33;1.60;;;5.30;97.70;;;3.55;68.37;98884.66;10236848;28;96563;-84
2023/03/27 15:53:43;;;;;;;4.33;2.10;;;5.20;96.80;;;3.51;68.39;98909.56;10252310;28;96498;-84
2023/03/27 15:59:03;;;;;;;2.38;1.55;;;5.20;96.70;;;3.47;66.28;98919.53;10229044;28;96549;-85
2023/03/27 16:04:17;;;;;;;3.93;1.87;;;5.10;95.50;;;3.42;67.37;98934.97;10252100;28;98670;-85
2023/03/27 16:09:49;;;;;;;4.27;1.70;;;5.10;95.90;;;3.42;65.52;98936.75;10247104;28;96705;-83
2023/03/27 16:14:56;;;;;;;4.05;1.95;;;5.00;94.80;;;3.37;65.88;98947.72;10233147;28;98911;-82
2023/03/27 16:20:21;;;;;;;3.50;1.77;;;5.00;94.90;;;3.38;65.74;98966.94;10233647;28;97395;-83
2023/03/27 16:25:24;;;;;;;6.70;1.90;;;5.00;94.70;;;3.33;65.75;98985.75;10236287;28;97423;-81
2023/03/27 16:30:37;;;;;;;4.13;1.67;;;5.00;94.90;;;3.33;64.91;99021.69;10211276;28;97467;-82
2023/03/27 16:35:41;;;;;;;3.77;1.53;;;5.00;94.10;;;3.32;64.97;99020.03;10206418;28;97546;-83
2023/03/27 16:40:45;;;;;;;8.40;1.70;;;5.00;94.20;;;3.32;64.56;99038.44;10212147;28;98454;-83
2023/03/27 16:45:48;;;;;;;3.17;1.90;;;5.00;93.90;;;3.32;63.84;99057.63;10237788;28;97569;-83
2023/03/27 16:50:51;;;;;;;2.97;1.80;;;5.00;93.60;;;3.34;64.32;99045.16;10252845;28;96561;-83
2023/03/27 16:55:55;;;;;;;2.53;1.60;;;5.00;93.70;;;3.36;63.41;99053.75;10290722;28;97473;-86
2023/03/27 17:00:58;;;;;;;2.90;2.00;;;5.00;93.10;;;3.41;62.41;99077.72;10291560;28;98228;-81
2023/03/27 17:06:04;;;;;;;1.97;1.23;;;5.00;92.40;;;3.43;62.66;99095.97;10259465;28;97029;-84
2023/03/27 17:11:11;;;;;;;3.10;1.57;;;5.10;92.50;;;3.44;63.09;99121.25;10252333;28;96578;-83
2023/03/27 17:16:15;;;;;;;4.67;2.20;;;5.10;92.80;;;3.39;63.87;99134.84;10243724;28;97956;-81
2023/03/27 17:21:18;;;;;;;4.03;2.10;;;5.10;93.20;;;3.40;63.43;99173.25;10250897;28;97395;-82
2023/03/27 17:26:31;;;;;;;3.47;2.07;;;5.10;92.80;;;3.34;62.83;99181.72;10271514;28;98891;-81
2023/03/27 17:31:34;;;;;;;4.73;2.30;;;5.00;92.20;;;3.33;62.65;99206.31;10235476;28;97711;-80
2023/03/27 17:36:38;;;;;;;5.83;2.87;;;5.00;92.30;;;3.31;61.80;99231.91;10247870;28;98051;-80
2023/03/27 17:41:54;;;;;;;5.07;2.87;;;5.00;91.70;;;3.25;61.71;99244.78;10245529;28;98447;-80
2023/03/27 17:46:57;;;;;;;3.53;1.83;;;5.00;91.40;;;3.18;61.49;99270.81;10244724;28;96844;-81
2023/03/27 17:52:06;;;;;;;2.30;1.67;;;4.90;91.20;;;3.12;58.93;99272.19;10245168;28;96482;-81
2023/03/27 17:57:09;;;;;;;2.93;1.90;;;4.80;89.30;;;3.02;60.17;99296.81;10280263;28;96577;-81
2023/03/27 18:02:18;;;;;;;2.77;1.67;;;4.80;90.50;;;2.89;60.28;99308.44;10252179;28;96735;-81
2023/03/27 18:07:22;;;;;;;4.10;2.30;;;4.70;90.20;;;2.76;60.61;99310.53;10255195;28;96449;-81
2023/03/27 18:12:25;;;;;;;3.63;1.90;;;4.60;90.30;;;2.65;60.38;99323.78;10241091;28;98253;-81
2023/03/27 18:17:28;;;;;;;4.20;2.10;;;4.50;90.00;;;2.56;60.77;99356.06;10257113;28;96413;-80
2023/03/27 18:22:31;;;;;;;2.83;1.70;;;4.40;90.10;;;2.48;61.16;99362.00;10253463;28;98667;-80
2023/03/27 18:27:39;;;;;;;3.33;1.80;;;4.30;90.50;;;2.41;61.34;99380.09;10274699;28;97615;-81
2023/03/27 18:32:44;;;;;;;3.93;1.70;;;4.30;90.50;;;2.31;61.87;99374.00;10213573;28;96409;-80
2023/03/27 18:37:47;;;;;;;3.80;1.87;;;4.20;90.70;;;2.33;60.31;99385.16;10241437;28;98370;-80
2023/03/27 18:42:50;;;;;;;2.80;2.10;;;4.20;89.00;;;2.37;60.14;99397.06;10246740;28;97415;-82
2023/03/27 18:47:53;;;;;;;2.40;1.83;;;4.20;89.50;;;2.38;59.91;99406.56;10248994;28;98719;-83
2023/03/27 18:52:56;;;;;;;4.10;2.13;;;4.20;88.20;;;2.37;59.01;99385.72;10254459;28;96435;-82
2023/03/27 18:58:02;;;;;;;3.63;1.87;;;4.20;88.00;;;2.34;58.20;99399.09;10265911;28;97422;-82
2023/03/27 19:03:05;;;;;;;3.97;2.10;;;4.10;86.00;;;2.31;58.01;99410.69;10267790;28;96636;-82
2023/03/27 19:08:09;;;;;;;5.20;2.00;;;4.10;86.00;;;2.26;58.04;99389.28;10276972;28;96571;-82
2023/03/27 19:13:12;;;;;;;6.13;2.53;;;4.10;86.50;;;2.18;59.06;99398.81;10267198;28;96645;-82
2023/03/27 19:18:16;;;;;;;3.70;1.80;;;4.00;86.30;;;2.12;58.03;99402.78;10230795;28;96598;-83
2023/03/27 19:23:19;;;;;;;5.70;2.77;;;4.00;85.40;;;2.08;59.31;99386.50;10246767;28;98126;-82
2023/03/27 19:28:22;;;;;;;4.27;2.10;;;3.90;86.90;;;2.00;60.01;99393.38;10283380;28;96743;-82
2023/03/27 19:33:26;;;;;;;3.17;1.87;;;3.80;87.50;;;1.97;59.36;99417.19;10252341;28;96989;-80
2023/03/27 19:38:30;;;;;;;3.20;1.90;;;3.80;86.80;;;1.97;59.64;99410.16;10250124;28;97274;-81
2023/03/27 19:43:33;;;;;;;2.83;1.77;;;3.80;87.60;;;1.93;59.88;99423.69;10265883;28;96734;-81
2023/03/27 19:48:36;;;;;;;3.43;1.80;;;3.80;87.60;;;1.88;60.07;99421.47;10245281;28;99051;-81
2023/03/27 19:53:40;;;;;;;6.50;2.40;;;3.70;88.00;;;1.88;60.01;99424.91;10280725;28;97013;-80
2023/03/27 19:58:43;;;;;;;2.73;1.77;;;3.70;87.80;;;1.83;60.54;99424.47;10282333;28;96516;-80
2023/03/27 20:03:46;;;;;;;2.80;1.50;;;3.70;88.40;;;1.84;60.09;99441.00;10247765;28;98216;-81
2023/03/27 20:08:56;;;;;;;3.87;2.10;;;3.70;88.00;;;1.81;60.14;99442.13;10228713;28;96841;-82
2023/03/27 20:13:59;;;;;;;2.93;2.10;;;3.70;87.60;;;1.83;59.50;99465.56;10250615;28;96900;-81
2023/03/27 20:19:03;;;;;;;3.50;1.70;;;3.70;87.10;;;1.83;58.33;99458.53;10252927;28;96604;-80
2023/03/27 20:24:10;;;;;;;4.63;1.90;;;3.70;85.40;;;1.89;57.46;99459.78;10236939;28;96493;-81
2023/03/27 20:29:17;;;;;;;2.87;1.50;;;3.70;83.80;;;1.82;58.69;99480.44;10266137;28;96545;-83
2023/03/27 20:34:21;;;;;;;5.53;2.23;;;3.70;85.10;;;1.77;58.14;99493.09;10250327;28;96510;-83
2023/03/27 20:39:26;;;;;;;2.60;1.77;;;3.70;85.10;;;1.74;57.92;99482.03;10261439;28;97879;-83
2023/03/27 20:44:34;;;;;;;6.37;2.23;;;3.60;85.00;;;1.66;58.10;99495.78;10266337;28;96532;-82
2023/03/27 20:49:41;;;;;;;6.83;1.90;;;3.60;84.90;;;1.70;57.11;99497.19;10214968;28;96564;-82
2023/03/27 20:54:47;;;;;;;5.97;1.70;;;3.50;84.00;;;1.67;57.21;99500.06;10253293;28;96547;-82
2023/03/27 20:59:51;;;;;;;5.63;2.03;;;3.50;83.90;;;1.61;57.10;99505.81;10229131;28;96554;-81
2023/03/27 21:04:54;;;;;;;3.43;1.53;;;3.50;83.50;;;1.63;57.54;99516.19;10267369;28;98296;-83
2023/03/27 21:09:57;;;;;;;2.70;1.40;;;3.40;83.50;;;1.65;57.65;99506.38;10257355;28;96593;-83
2023/03/27 21:15:01;;;;;;;3.60;1.40;;;3.40;83.80;;;1.66;57.07;99501.00;10226465;28;96469;-83
2023/03/27 21:20:05;;;;;;;4.07;1.30;;;3.40;83.30;;;1.68;57.18;99514.84;10264021;28;96686;-83
2023/03/27 21:25:08;;;;;;;2.23;1.30;;;3.40;83.30;;;1.64;57.42;99513.41;10263593;28;96505;-81
2023/03/27 21:30:12;;;;;;;3.80;1.63;;;3.40;83.50;;;1.65;57.24;99536.03;10248494;28;96513;-82
2023/03/27 21:35:17;;;;;;;3.20;1.20;;;3.40;83.10;;;1.70;56.50;99528.63;10234405;28;96567;-81
2023/03/27 21:40:20;;;;;;;3.17;1.20;;;3.40;82.30;;;1.74;55.99;99542.28;10257210;28;96531;-81
2023/03/27 21:45:23;;;;;;;2.33;1.20;;;3.50;82.10;;;1.69;56.13;99547.94;10253937;28;96542;-81
2023/03/27 21:50:26;;;;;;;2.73;1.20;;;3.40;82.20;;;1.69;55.41;99542.69;10241131;28;98803;-80
2023/03/27 21:55:29;;;;;;;4.03;1.43;;;3.40;81.30;;;1.68;55.64;99566.34;10263417;28;98402;-82